Time;durP1;ratioP1;P1;durP2;ratioP2;P2;SDS_P1;SDS_P2;PMS_P1;PMS_P2;Temp;Humidity;BMP_temperature;BMP_pressure;BME280_temperature;BME280_humidity;BME280_pressure;Samples;Min_cycle;Max_cycle;Signal;HPM_P1;HPM_P2
2022/05/06 00:02:24;;;;;;;11.18;2.65;;;;;;;45.69;4.93;100861.63;5109676;28;20031;-61
2022/05/06 00:04:51;;;;;;;11.30;2.50;;;;;;;45.30;5.10;100857.50;5111876;28;20073;-61
2022/05/06 00:07:18;;;;;;;10.05;2.72;;;;;;;44.97;5.26;100860.69;5114443;28;20095;-61
2022/05/06 00:09:45;;;;;;;11.32;2.08;;;;;;;44.38;5.03;100861.63;5108820;28;20030;-61
2022/05/06 00:12:13;;;;;;;8.48;2.05;;;;;;;43.97;5.32;100855.69;5108636;28;20085;-61
2022/05/06 00:14:40;;;;;;;10.02;2.58;;;;;;;44.59;5.54;100848.94;5106379;28;20452;-61
2022/05/06 00:17:07;;;;;;;12.80;3.00;;;;;;;45.04;5.31;100849.56;5108488;28;20401;-61
2022/05/06 00:19:34;;;;;;;9.27;2.42;;;;;;;44.93;5.26;100849.44;5114121;28;20040;-61
2022/05/06 00:22:01;;;;;;;12.68;2.65;;;;;;;44.55;5.37;100839.75;5092227;28;20059;-59
2022/05/06 00:24:31;;;;;;;14.93;2.60;;;;;;;44.56;5.30;100838.47;5113041;28;20047;-62
2022/05/06 00:26:58;;;;;;;21.98;3.13;;;;;;;44.08;5.56;100840.78;5107712;28;20470;-61
2022/05/06 00:29:25;;;;;;;14.07;3.00;;;;;;;43.63;6.10;100839.16;5109502;28;20020;-59
2022/05/06 00:31:52;;;;;;;15.93;2.75;;;;;;;43.61;5.97;100836.00;5110624;28;20039;-60
2022/05/06 00:34:20;;;;;;;10.82;2.85;;;;;;;43.09;5.83;100839.13;5112168;28;20028;-62
2022/05/06 00:36:48;;;;;;;15.38;2.80;;;;;;;42.52;6.44;100836.25;5096090;28;20024;-61
2022/05/06 00:39:15;;;;;;;14.38;2.90;;;;;;;42.80;6.23;100839.75;5099274;28;20043;-60
2022/05/06 00:41:42;;;;;;;15.52;3.03;;;;;;;43.11;6.44;100833.72;5099431;28;20021;-60
2022/05/06 00:44:09;;;;;;;24.45;3.20;;;;;;;42.68;6.30;100843.63;5106323;28;20515;-60
2022/05/06 00:46:39;;;;;;;18.67;3.20;;;;;;;42.65;6.25;100836.03;5112588;28;20040;-60
2022/05/06 00:49:11;;;;;;;15.93;2.70;;;;;;;42.97;5.54;100847.94;5094042;28;20027;-60
2022/05/06 00:51:40;;;;;;;9.35;2.67;;;;;;;41.89;6.81;100837.25;5092307;28;20043;-62
2022/05/06 00:54:07;;;;;;;13.07;2.83;;;;;;;41.03;7.08;100843.88;5107096;28;20074;-61
2022/05/06 00:56:34;;;;;;;20.35;3.10;;;;;;;41.02;7.29;100852.91;5112426;28;20027;-60
2022/05/06 00:59:01;;;;;;;9.90;2.90;;;;;;;40.58;7.45;100846.56;5087368;27;20067;-60
2022/05/06 01:01:29;;;;;;;14.57;2.92;;;;;;;40.72;7.43;100845.97;5099804;27;20051;-61
2022/05/06 01:03:57;;;;;;;14.57;3.30;;;;;;;40.46;7.40;100851.91;5082636;28;20027;-61
2022/05/06 01:06:24;;;;;;;18.40;3.47;;;;;;;39.54;7.54;100844.03;5086454;28;20096;-60
2022/05/06 01:08:53;;;;;;;12.00;3.08;;;;;;;39.42;8.20;100851.34;5078997;28;20378;-62
2022/05/06 01:11:20;;;;;;;11.75;2.88;;;;;;;39.09;8.10;100842.34;5098518;27;20481;-61
2022/05/06 01:13:53;;;;;;;18.50;3.10;;;;;;;38.67;8.65;100856.72;5092199;28;20027;-61
2022/05/06 01:16:23;;;;;;;15.00;2.97;;;;;;;38.66;8.72;100855.13;5105232;27;20063;-61
2022/05/06 01:18:56;;;;;;;14.65;3.00;;;;;;;38.56;8.45;100856.22;5089267;28;20432;-60
2022/05/06 01:21:26;;;;;;;14.30;2.83;;;;;;;37.46;9.16;100848.13;5100538;28;20047;-60
2022/05/06 01:23:53;;;;;;;17.13;3.28;;;;;;;37.46;9.13;100846.06;5111289;27;20035;-60
2022/05/06 01:26:20;;;;;;;16.15;2.95;;;;;;;37.58;9.34;100853.06;5099096;27;20063;-59
2022/05/06 01:28:48;;;;;;;15.52;2.85;;;;;;;37.68;9.31;100853.97;5082378;28;20028;-59
2022/05/06 01:31:26;;;;;;;17.35;3.55;;;;;;;37.73;9.46;100853.47;5084142;28;20168;-58
2022/05/06 01:33:55;;;;;;;15.30;2.70;;;;;;;37.56;9.61;100849.06;5081544;28;20035;-60
2022/05/06 01:36:27;;;;;;;18.98;2.97;;;;;;;37.43;9.86;100855.47;5098209;28;20588;-59
2022/05/06 01:39:00;;;;;;;17.27;3.28;;;;;;;37.44;9.95;100850.59;5103106;28;20031;-60
2022/05/06 01:41:33;;;;;;;20.35;2.72;;;;;;;37.24;10.11;100853.53;5088948;28;20047;-61
2022/05/06 01:44:14;;;;;;;20.15;3.78;;;;;;;36.80;9.96;100857.91;5091741;28;20058;-60
2022/05/06 01:46:43;;;;;;;24.38;5.22;;;;;;;36.35;10.37;100858.53;5088605;28;20034;-62
2022/05/06 01:49:19;;;;;;;23.70;4.20;;;;;;;36.22;10.15;100864.03;5103906;28;20055;-60
2022/05/06 01:51:48;;;;;;;18.13;3.05;;;;;;;35.79;10.65;100866.94;5087976;28;20119;-60
2022/05/06 01:54:20;;;;;;;19.67;3.17;;;;;;;35.55;11.08;100865.38;5095479;28;20693;-61
2022/05/06 01:56:50;;;;;;;20.20;3.20;;;;;;;35.61;11.02;100864.47;5093108;28;20043;-60
2022/05/06 01:59:18;;;;;;;17.52;2.70;;;;;;;35.30;11.30;100865.81;5104333;28;20116;-60
2022/05/06 02:01:47;;;;;;;22.02;2.97;;;;;;;35.36;11.04;100864.91;5075487;28;20027;-60
2022/05/06 02:07:06;;;;;;;17.33;3.20;;;;;;;34.70;11.29;100881.75;5087082;28;20131;-59
2022/05/06 02:09:33;;;;;;;15.55;2.80;;;;;;;34.53;11.56;100881.56;5081188;28;20076;-60
2022/05/06 02:12:07;;;;;;;;;;;;;;;34.32;12.14;100895.16;5063009;28;20062;-60
2022/05/06 02:14:56;;;;;;;12.20;3.47;;;;;;;34.08;12.01;100888.59;5088622;28;20065;-61
2022/05/06 02:17:35;;;;;;;20.35;2.88;;;;;;;33.99;12.22;100891.16;5077269;28;20032;-61
2022/05/06 02:20:24;;;;;;;12.77;3.03;;;;;;;33.86;12.62;100893.69;5095889;28;20135;-61
2022/05/06 02:22:53;;;;;;;12.00;3.03;;;;;;;33.81;12.21;100894.94;5101790;28;20031;-61
2022/05/06 02:25:33;;;;;;;18.52;2.92;;;;;;;33.71;12.52;100901.47;5099108;28;20123;-60
2022/05/06 02:28:08;;;;;;;19.40;2.90;;;;;;;33.63;12.28;100908.44;5097183;28;20369;-59
2022/05/06 02:33:24;;;;;;;11.88;2.80;;;;;;;33.04;13.18;100908.53;5077908;28;20039;-59
2022/05/06 02:36:01;;;;;;;35.70;4.05;;;;;;;32.83;13.40;100905.84;5088933;27;20031;-59
2022/05/06 02:38:31;;;;;;;19.02;3.47;;;;;;;32.53;13.65;100909.25;5084595;28;20115;-59
2022/05/06 02:40:59;;;;;;;20.25;3.30;;;;;;;32.33;13.79;100917.38;5103906;27;20028;-59
2022/05/06 02:43:31;;;;;;;20.23;3.65;;;;;;;32.64;12.98;100916.41;5081946;28;20051;-60
2022/05/06 02:45:58;;;;;;;30.48;5.03;;;;;;;32.78;13.63;100909.09;5074722;27;20028;-60
2022/05/06 02:48:25;;;;;;;25.92;4.57;;;;;;;32.83;13.73;100911.47;5103457;27;20373;-60
2022/05/06 02:50:52;;;;;;;53.15;5.10;;;;;;;32.46;13.54;100921.31;5077243;28;20050;-59
2022/05/06 02:53:22;;;;;;;21.17;4.10;;;;;;;32.52;13.47;100930.97;5091944;28;20496;-60
2022/05/06 02:55:49;;;;;;;15.05;3.90;;;;;;;32.65;13.16;100929.25;5102161;27;20039;-59
2022/05/06 02:58:16;;;;;;;16.25;3.38;;;;;;;33.06;11.66;100937.09;5089349;27;20055;-60
2022/05/06 03:00:46;;;;;;;18.33;3.65;;;;;;;32.94;11.07;100944.00;5083021;28;20055;-60
2022/05/06 03:03:13;;;;;;;13.90;3.60;;;;;;;32.64;11.21;100933.28;5109172;27;20031;-60
2022/05/06 03:05:42;;;;;;;13.85;3.50;;;;;;;32.65;11.56;100954.59;5100576;27;20093;-60
2022/05/06 03:08:10;;;;;;;14.68;3.78;;;;;;;32.39;11.38;100949.50;5105612;27;20035;-60
2022/05/06 03:10:37;;;;;;;25.02;4.40;;;;;;;32.15;11.61;100949.16;5080801;28;20033;-60
2022/05/06 03:13:05;;;;;;;22.98;4.95;;;;;;;32.19;11.66;100957.59;5105163;27;20060;-60
2022/05/06 03:15:32;;;;;;;19.80;5.35;;;;;;;32.08;11.43;100957.59;5091891;28;20469;-60
2022/05/06 03:18:10;;;;;;;22.88;4.50;;;;;;;32.04;11.30;100965.25;5089077;28;20043;-60
2022/05/06 03:20:40;;;;;;;20.40;6.88;;;;;;;31.92;11.51;100960.06;5107625;27;20083;-59
2022/05/06 03:23:07;;;;;;;30.92;16.48;;;;;;;31.91;11.48;100974.53;5091289;27;20123;-59
2022/05/06 03:25:35;;;;;;;22.60;11.10;;;;;;;31.75;12.22;100980.56;5109202;27;20020;-60
2022/05/06 03:28:08;;;;;;;25.80;14.52;;;;;;;31.74;11.81;100982.56;5108439;27;20028;-60
2022/05/06 03:30:44;;;;;;;19.15;8.95;;;;;;;31.60;12.20;100981.75;5106447;27;20038;-59
2022/05/06 03:33:21;;;;;;;23.42;9.52;;;;;;;31.60;12.31;100987.38;5096672;27;20119;-60
2022/05/06 03:35:49;;;;;;;18.27;4.93;;;;;;;31.58;12.25;100994.19;5102414;27;20375;-60
2022/05/06 03:38:17;;;;;;;24.65;4.95;;;;;;;31.56;12.18;101002.22;5095660;27;20529;-60
2022/05/06 03:40:48;;;;;;;15.10;3.75;;;;;;;31.40;12.16;101013.06;5081099;28;20383;-60
2022/05/06 03:43:15;;;;;;;16.92;5.65;;;;;;;31.20;12.76;101004.22;5107742;27;20544;-60
2022/05/06 03:45:43;;;;;;;15.07;3.75;;;;;;;31.11;12.77;101006.59;5093000;28;20032;-60
2022/05/06 03:48:10;;;;;;;25.92;6.60;;;;;;;30.98;12.71;101010.97;5104405;28;20056;-59
2022/05/06 03:53:29;;;;;;;18.83;4.15;;;;;;;30.69;13.26;101029.69;5093790;28;20027;-59
2022/05/06 03:55:57;;;;;;;14.10;4.68;;;;;;;30.48;13.26;101030.38;5094813;28;20027;-60
2022/05/06 03:58:27;;;;;;;15.75;5.72;;;;;;;30.50;13.08;101039.19;5095427;28;20023;-60
2022/05/06 04:00:55;;;;;;;16.83;5.78;;;;;;;30.41;13.17;101037.97;5095000;28;20119;-60
2022/05/06 04:03:22;;;;;;;17.30;3.80;;;;;;;30.37;12.61;101041.56;5096390;28;20019;-60
2022/05/06 04:05:49;;;;;;;17.08;8.00;;;;;;;30.15;13.03;101045.41;5095299;28;20031;-60
2022/05/06 04:08:18;;;;;;;20.48;3.80;;;;;;;30.07;12.76;101049.38;5076673;28;20108;-60
2022/05/06 04:10:45;;;;;;;15.27;4.13;;;;;;;30.12;12.53;101053.81;5093205;28;20077;-60
2022/05/06 04:13:13;;;;;;;14.55;3.88;;;;;;;30.31;12.28;101062.75;5094807;28;20067;-60
2022/05/06 04:15:41;;;;;;;20.15;4.65;;;;;;;30.42;12.00;101065.63;5112493;28;20039;-60
2022/05/06 04:18:13;;;;;;;20.90;5.05;;;;;;;30.32;12.43;101069.16;5091014;28;20027;-60
2022/05/06 04:23:31;;;;;;;12.52;4.68;;;;;;;29.96;12.65;101076.47;5094003;28;20046;-59
2022/05/06 04:26:05;;;;;;;20.15;5.28;;;;;;;29.82;12.67;101076.38;5072938;28;20032;-59
2022/05/06 04:28:35;;;;;;;19.63;5.45;;;;;;;29.85;12.37;101070.00;5094090;28;20721;-59
2022/05/06 04:31:05;;;;;;;17.48;5.75;;;;;;;29.75;12.21;101074.31;5087925;28;20032;-59
2022/05/06 04:33:40;;;;;;;17.92;5.72;;;;;;;29.74;12.39;101075.50;5093768;28;20389;-59
2022/05/06 04:36:15;;;;;;;17.60;5.15;;;;;;;29.43;12.48;101080.38;5079107;28;20039;-59
2022/05/06 04:38:46;;;;;;;21.60;5.88;;;;;;;29.21;13.16;101088.94;5078704;28;20036;-60
2022/05/06 04:41:14;;;;;;;21.42;6.93;;;;;;;29.17;13.31;101080.50;5105694;27;20046;-58
2022/05/06 04:43:42;;;;;;;23.25;5.75;;;;;;;29.01;13.13;101089.13;5098018;28;20023;-59
2022/05/06 04:46:09;;;;;;;15.15;4.40;;;;;;;29.13;12.43;101086.06;5113079;28;20493;-59
2022/05/06 04:48:37;;;;;;;19.13;4.35;;;;;;;29.24;12.16;101086.16;5095423;28;20370;-59
2022/05/06 04:51:07;;;;;;;15.95;4.40;;;;;;;29.43;12.09;101076.75;5095269;28;20099;-59
2022/05/06 04:53:34;;;;;;;17.50;3.80;;;;;;;29.50;11.62;101090.09;5078467;28;20040;-59
2022/05/06 04:56:01;;;;;;;18.17;5.50;;;;;;;29.24;12.15;101090.97;5076014;28;20059;-59
2022/05/06 04:58:40;;;;;;;14.52;4.57;;;;;;;29.13;12.08;101088.88;5091168;28;20032;-59
2022/05/06 05:01:14;;;;;;;15.95;4.90;;;;;;;29.27;11.19;101090.22;5093417;28;20074;-58
2022/05/06 05:03:41;;;;;;;21.20;4.40;;;;;;;29.37;11.42;101092.31;5094995;28;20093;-60
2022/05/06 05:06:07;;;;;;;16.92;4.40;;;;;;;29.12;11.39;101089.25;5095057;28;20031;-59
2022/05/06 05:08:36;;;;;;;15.77;4.10;;;;;;;29.08;11.34;101089.19;5095030;28;20039;-59
2022/05/06 05:11:03;;;;;;;13.18;4.20;;;;;;;28.92;11.57;101101.81;5094802;28;20027;-59
2022/05/06 05:13:38;;;;;;;17.90;4.07;;;;;;;28.85;11.55;101102.47;5102503;27;20091;-60
2022/05/06 05:16:08;;;;;;;16.65;3.90;;;;;;;28.63;11.26;101094.97;5094322;28;20088;-59
2022/05/06 05:18:34;;;;;;;14.20;4.05;;;;;;;28.46;11.88;101097.16;5093988;28;20023;-58
2022/05/06 05:21:01;;;;;;;12.93;3.35;;;;;;;28.37;11.46;101110.59;5084159;28;20497;-59
2022/05/06 05:23:29;;;;;;;23.35;4.10;;;;;;;28.45;11.24;101100.31;5092037;28;20044;-60
2022/05/06 05:25:58;;;;;;;17.95;5.93;;;;;;;28.28;11.36;101107.25;5070942;28;20035;-60
2022/05/06 05:28:25;;;;;;;20.98;6.88;;;;;;;28.35;11.46;101109.34;5105725;28;20330;-59
2022/05/06 05:30:51;;;;;;;25.67;10.88;;;;;;;28.28;11.30;101099.69;5092218;28;20126;-59
2022/05/06 05:33:19;;;;;;;27.10;9.80;;;;;;;28.27;11.81;101100.06;5092606;28;20398;-59
2022/05/06 05:35:52;;;;;;;24.10;11.02;;;;;;;28.13;11.96;101094.22;5094793;28;20028;-59
2022/05/06 05:38:19;;;;;;;22.92;7.88;;;;;;;27.94;11.92;101100.69;5094708;28;20023;-59
2022/05/06 05:40:47;;;;;;;20.63;5.78;;;;;;;27.87;11.81;101103.38;5081204;28;20036;-58
2022/05/06 05:48:52;;;;;;;21.42;5.07;;;;;;;27.96;11.36;101087.16;5091289;28;20143;-60
2022/05/06 05:51:20;;;;;;;24.45;8.90;;;;;;;27.99;11.86;101089.19;5077946;28;20073;-58
2022/05/06 05:53:53;;;;;;;18.73;8.75;;;;;;;27.96;11.43;101093.53;5094347;28;20394;-60
2022/05/06 05:56:21;;;;;;;18.58;5.00;;;;;;;28.05;11.11;101076.53;5094622;28;20062;-58
2022/05/06 05:58:51;;;;;;;17.52;4.25;;;;;;;27.90;12.77;101085.88;5085794;28;20031;-60
2022/05/06 06:01:21;;;;;;;20.90;5.28;;;;;;;27.71;13.48;101089.53;5089592;28;20038;-60
2022/05/06 06:03:48;;;;;;;18.20;5.65;;;;;;;27.57;12.89;101089.25;5108057;28;20118;-60
2022/05/06 06:06:15;;;;;;;17.00;6.18;;;;;;;27.44;13.40;101091.41;5090589;28;20024;-60
2022/05/06 06:08:46;;;;;;;20.83;6.57;;;;;;;27.37;13.24;101091.28;5093381;28;20032;-60
2022/05/06 06:11:12;;;;;;;13.90;5.28;;;;;;;27.23;13.73;101094.59;5096735;28;20497;-60
2022/05/06 06:13:43;;;;;;;13.95;4.85;;;;;;;27.14;14.74;101087.66;5095143;28;20031;-60
2022/05/06 06:16:17;;;;;;;15.45;5.65;;;;;;;27.13;13.24;101095.22;5097818;28;20485;-59
2022/05/06 06:18:44;;;;;;;17.52;5.95;;;;;;;27.15;13.63;101104.00;5111901;28;20039;-59
2022/05/06 06:21:14;;;;;;;12.00;5.47;;;;;;;27.18;13.29;101100.47;5097475;28;20035;-60
2022/05/06 06:23:41;;;;;;;9.07;5.18;;;;;;;27.35;12.85;101093.63;5096227;28;20076;-59
2022/05/06 06:26:08;;;;;;;16.23;5.90;;;;;;;27.46;13.24;101088.22;5097089;28;20024;-58
2022/05/06 06:28:36;;;;;;;17.25;5.15;;;;;;;27.25;12.59;101077.47;5095617;28;20031;-58
2022/05/06 06:31:06;;;;;;;14.90;5.97;;;;;;;27.27;12.70;101081.50;5096136;28;20023;-59
2022/05/06 06:33:37;;;;;;;18.25;8.50;;;;;;;27.25;12.68;101074.69;5079795;28;20028;-59
2022/05/06 06:36:08;;;;;;;16.17;7.38;;;;;;;27.10;13.54;101084.75;5097292;28;20035;-59
2022/05/06 06:38:37;;;;;;;17.02;7.60;;;;;;;27.14;12.96;101082.88;5094220;28;20115;-59
2022/05/06 06:41:04;;;;;;;18.13;6.53;;;;;;;27.16;13.05;101074.94;5095530;28;20114;-60
2022/05/06 06:43:32;;;;;;;19.73;6.57;;;;;;;27.10;12.20;101090.34;5096922;28;20019;-60
2022/05/06 06:46:32;;;;;;;14.88;5.90;;;;;;;27.17;12.85;101082.13;5080594;28;20053;-60
2022/05/06 06:49:17;;;;;;;13.90;5.40;;;;;;;27.14;12.51;101082.06;5115829;28;20503;-60
2022/05/06 06:52:04;;;;;;;14.73;4.90;;;;;;;26.99;12.29;101076.16;5097105;28;20035;-59
2022/05/06 06:54:31;;;;;;;17.90;5.03;;;;;;;27.15;11.89;101078.91;5115924;28;20024;-59
2022/05/06 06:56:58;;;;;;;19.05;4.63;;;;;;;27.08;12.52;101084.31;5110191;28;20015;-60
2022/05/06 06:59:25;;;;;;;14.02;4.07;;;;;;;26.96;12.60;101081.66;5115793;28;20046;-60
2022/05/06 07:01:52;;;;;;;8.48;3.85;;;;;;;26.89;11.97;101078.72;5109904;28;20027;-59
2022/05/06 07:04:18;;;;;;;20.77;4.10;;;;;;;26.74;12.58;101086.78;5121766;27;20053;-58
2022/05/06 07:12:15;;;;;;;13.80;3.53;;;;;;;26.53;12.59;101079.94;5094887;28;20043;-59
2022/05/06 07:14:43;;;;;;;17.17;3.90;;;;;;;26.52;12.68;101078.31;5094847;28;20034;-59
2022/05/06 07:17:10;;;;;;;15.07;3.90;;;;;;;26.67;12.20;101064.31;5115113;28;20142;-60
2022/05/06 07:19:37;;;;;;;19.17;4.68;;;;;;;26.49;12.66;101075.09;5109707;28;20102;-60
2022/05/06 07:22:04;;;;;;;12.50;4.28;;;;;;;26.45;12.62;101073.41;5110321;28;20482;-59
2022/05/06 07:24:35;;;;;;;16.30;4.10;;;;;;;26.33;13.29;101071.50;5096110;28;20461;-59
2022/05/06 07:27:01;;;;;;;9.52;3.72;;;;;;;26.09;13.59;101063.38;5109682;28;20034;-60
2022/05/06 07:29:31;;;;;;;16.48;4.63;;;;;;;25.94;13.48;101062.22;5115401;28;20036;-59
2022/05/06 07:31:57;;;;;;;17.60;6.30;;;;;;;25.88;13.25;101063.69;5109326;28;20038;-59
2022/05/06 07:34:24;;;;;;;15.30;4.28;;;;;;;25.73;12.86;101065.28;5116648;27;20040;-59
2022/05/06 07:36:51;;;;;;;15.05;4.72;;;;;;;25.61;13.61;101065.34;5124723;27;20024;-59
2022/05/06 07:39:17;;;;;;;12.65;4.22;;;;;;;25.52;14.10;101065.53;5109921;28;20094;-59
2022/05/06 07:41:44;;;;;;;12.23;4.18;;;;;;;25.59;14.17;101070.47;5113812;28;20042;-59
2022/05/06 07:44:11;;;;;;;13.90;3.75;;;;;;;25.71;13.59;101062.06;5111148;28;20027;-59
2022/05/06 07:46:38;;;;;;;16.60;3.30;;;;;;;25.56;14.61;101060.03;5109448;28;20046;-59
2022/05/06 07:49:06;;;;;;;14.85;3.30;;;;;;;25.54;13.59;101063.19;5114294;28;20035;-60
2022/05/06 07:51:33;;;;;;;17.15;2.97;;;;;;;25.49;14.06;101054.28;5114903;28;20020;-58
2022/05/06 07:54:00;;;;;;;10.88;3.30;;;;;;;25.65;13.88;101054.28;5111243;28;20035;-60
2022/05/06 07:56:29;;;;;;;15.85;3.30;;;;;;;25.63;13.95;101056.63;5093337;28;20355;-59
2022/05/06 07:58:56;;;;;;;15.27;3.05;;;;;;;25.66;13.66;101058.69;5114456;28;20042;-59
2022/05/06 08:06:56;;;;;;;10.43;3.10;;;;;;;25.49;13.95;101048.72;5123929;27;20067;-59
2022/05/06 08:09:22;;;;;;;12.40;2.90;;;;;;;25.23;14.90;101046.44;5108927;28;20053;-59
2022/05/06 08:11:49;;;;;;;14.02;3.83;;;;;;;25.07;15.47;101045.59;5095699;28;20020;-58
2022/05/06 08:14:17;;;;;;;17.02;3.20;;;;;;;25.08;15.16;101050.00;5114145;28;20106;-60
2022/05/06 08:16:48;;;;;;;17.45;3.28;;;;;;;24.99;14.95;101047.34;5109161;28;20028;-59
2022/05/06 08:19:15;;;;;;;10.75;2.83;;;;;;;25.00;15.00;101044.25;5114146;28;20051;-58
2022/05/06 08:21:41;;;;;;;14.05;3.05;;;;;;;25.06;15.35;101039.22;5108483;28;20416;-58
2022/05/06 08:24:08;;;;;;;11.57;2.90;;;;;;;25.00;15.50;101038.69;5095788;28;20102;-59
2022/05/06 08:26:35;;;;;;;13.88;3.38;;;;;;;24.95;14.74;101032.50;5114239;28;20019;-59
2022/05/06 08:29:03;;;;;;;12.18;3.50;;;;;;;24.98;14.65;101038.19;5108389;28;20531;-58
2022/05/06 08:31:37;;;;;;;13.50;3.70;;;;;;;24.81;15.18;101044.06;5106963;28;20525;-59
2022/05/06 08:34:08;;;;;;;15.43;3.85;;;;;;;24.76;14.77;101035.97;5117805;27;20081;-59
2022/05/06 08:36:38;;;;;;;14.82;3.17;;;;;;;24.59;15.98;101039.81;5125976;27;20035;-58
2022/05/06 08:39:06;;;;;;;13.88;3.45;;;;;;;24.66;14.84;101040.06;5086877;28;20056;-59
2022/05/06 08:41:35;;;;;;;12.55;3.20;;;;;;;24.74;14.84;101031.91;5112654;28;20032;-58
2022/05/06 08:52:36;;;;;;;10.93;2.80;;;;;;;24.92;15.37;101025.69;5108139;28;20489;-59
2022/05/06 08:55:05;;;;;;;11.98;2.78;;;;;;;24.78;15.22;101022.53;5109193;28;20035;-59
2022/05/06 08:57:33;;;;;;;11.65;2.20;;;;;;;24.77;15.20;101033.97;5112636;28;20028;-60
2022/05/06 08:59:59;;;;;;;14.43;2.70;;;;;;;24.69;15.71;101017.13;5109948;28;20046;-59
2022/05/06 09:02:26;;;;;;;9.65;2.45;;;;;;;24.59;15.92;101020.38;5111251;28;20035;-59
2022/05/06 09:04:53;;;;;;;15.95;2.42;;;;;;;24.61;15.73;101018.09;5118920;27;20019;-60
2022/05/06 09:07:22;;;;;;;9.63;2.03;;;;;;;24.46;15.71;101013.25;5119131;27;20035;-59
2022/05/06 09:10:14;;;;;;;11.25;2.42;;;;;;;24.45;15.66;101014.41;5107930;28;20534;-59
2022/05/06 09:12:42;;;;;;;10.95;2.85;;;;;;;24.27;15.88;101011.06;5107824;28;20053;-60
2022/05/06 09:17:59;;;;;;;9.80;2.20;;;;;;;24.22;16.52;101005.75;5108010;28;20565;-59
2022/05/06 09:20:27;;;;;;;11.15;2.30;;;;;;;24.21;16.35;101012.47;5107564;28;20044;-58
2022/05/06 09:22:55;;;;;;;11.93;2.30;;;;;;;24.32;15.84;101004.50;5112931;28;20039;-59
2022/05/06 09:25:55;;;;;;;10.43;2.20;;;;;;;24.29;16.25;101014.34;5107817;28;20027;-58
2022/05/06 09:28:24;;;;;;;8.88;2.55;;;;;;;24.23;16.33;101010.13;5065811;28;20039;-58
2022/05/06 09:31:03;;;;;;;14.80;2.47;;;;;;;24.02;16.08;100999.19;5111256;28;20070;-58
2022/05/06 09:33:32;;;;;;;8.13;2.10;;;;;;;23.95;15.86;101004.53;5111289;28;20035;-58
2022/05/06 09:35:59;;;;;;;9.80;2.33;;;;;;;24.06;15.75;101007.66;5130147;27;20043;-59
2022/05/06 09:38:29;;;;;;;9.80;2.15;;;;;;;23.99;15.79;100999.06;5107667;28;20036;-58
2022/05/06 09:40:57;;;;;;;10.07;1.95;;;;;;;24.01;16.12;101005.91;5112772;28;20035;-58
2022/05/06 09:43:26;;;;;;;10.07;2.03;;;;;;;23.83;16.34;101010.06;5107562;28;20043;-59
2022/05/06 09:45:53;;;;;;;9.73;2.38;;;;;;;23.73;16.15;101008.59;5109921;28;20085;-59
2022/05/06 09:48:20;;;;;;;9.63;2.30;;;;;;;23.65;16.37;101008.69;5110178;28;20386;-58
2022/05/06 09:50:48;;;;;;;12.20;2.15;;;;;;;23.41;16.45;100996.38;5107402;28;20019;-59
2022/05/06 09:53:19;;;;;;;6.47;2.15;;;;;;;23.40;16.62;101013.38;5094871;28;20043;-58
2022/05/06 09:55:47;;;;;;;11.98;2.40;;;;;;;23.14;16.90;101014.47;5107588;28;20115;-59
2022/05/06 09:58:16;;;;;;;12.75;2.95;;;;;;;23.00;17.34;101016.75;5107654;28;20024;-59
2022/05/06 10:00:43;;;;;;;11.10;2.50;;;;;;;22.83;17.49;101008.59;5112371;28;20477;-59
2022/05/06 10:03:10;;;;;;;16.70;2.83;;;;;;;22.80;17.89;101014.75;5108392;28;20509;-58
2022/05/06 10:05:38;;;;;;;10.85;2.60;;;;;;;22.57;18.38;101009.59;5129725;27;20042;-58
2022/05/06 10:08:07;;;;;;;16.90;2.75;;;;;;;22.37;18.32;101013.19;5108473;28;20430;-58
2022/05/06 10:10:42;;;;;;;10.85;2.60;;;;;;;22.20;18.88;101018.84;5112102;28;20092;-58
2022/05/06 10:13:19;;;;;;;13.13;2.85;;;;;;;22.16;18.78;101015.13;5107082;28;20039;-58
2022/05/06 10:15:51;;;;;;;10.32;2.42;;;;;;;22.22;18.93;101016.53;5111209;28;20038;-58
2022/05/06 10:18:41;;;;;;;11.07;2.55;;;;;;;22.13;19.01;101024.09;5109758;28;20102;-59
2022/05/06 10:21:13;;;;;;;12.02;2.63;;;;;;;21.86;19.02;101034.47;5088744;28;20040;-59
2022/05/06 10:23:49;;;;;;;14.70;2.65;;;;;;;21.89;19.25;101028.25;5111979;28;20497;-59
2022/05/06 10:26:37;;;;;;;16.92;3.35;;;;;;;21.82;19.64;101039.03;5109316;28;20028;-60
2022/05/06 10:34:54;;;;;;;23.60;5.70;;;;;;;21.71;20.05;101046.06;5120873;28;19926;-59
2022/05/06 10:37:22;;;;;;;21.27;6.45;;;;;;;21.68;20.40;101038.44;5117880;28;20039;-60
2022/05/06 10:39:49;;;;;;;45.17;7.43;;;;;;;21.56;20.98;101046.66;5107221;28;20473;-59
2022/05/06 10:42:17;;;;;;;33.20;8.30;;;;;;;21.40;21.68;101038.88;5106802;28;20158;-59
2022/05/06 10:44:45;;;;;;;32.90;7.22;;;;;;;21.29;22.10;101045.09;5112607;28;20028;-59
2022/05/06 10:47:12;;;;;;;34.97;8.60;;;;;;;21.28;22.31;101049.00;5106027;28;20360;-59
2022/05/06 10:49:39;;;;;;;40.33;9.23;;;;;;;21.06;23.58;101047.22;5111564;28;20113;-59
2022/05/06 10:52:24;;;;;;;34.40;9.10;;;;;;;21.05;24.66;101051.94;5107457;28;20084;-59
2022/05/06 10:54:58;;;;;;;45.88;9.40;;;;;;;21.18;24.57;101047.34;5106816;28;20043;-59
2022/05/06 10:57:27;;;;;;;39.22;9.15;;;;;;;20.98;25.03;101048.03;5114089;28;20047;-59
2022/05/06 11:00:01;;;;;;;36.78;9.43;;;;;;;20.89;24.99;101044.47;5110386;28;20117;-59
2022/05/06 11:02:30;;;;;;;31.23;9.13;;;;;;;20.71;25.10;101052.78;5110917;28;20454;-60
2022/05/06 11:05:01;;;;;;;40.42;10.20;;;;;;;20.55;25.51;101051.63;5121787;27;20034;-59
2022/05/06 11:07:30;;;;;;;37.67;9.38;;;;;;;20.38;25.93;101060.66;5100619;28;20093;-59
2022/05/06 11:09:56;;;;;;;42.10;10.30;;;;;;;20.26;25.67;101060.47;5127030;27;20019;-59
2022/05/06 11:12:49;;;;;;;37.63;9.18;;;;;;;20.11;26.40;101061.75;5108014;28;20149;-59
2022/05/06 11:15:21;;;;;;;43.38;10.30;;;;;;;20.05;26.87;101056.69;5115945;28;20066;-60
2022/05/06 11:17:49;;;;;;;44.97;10.30;;;;;;;20.10;26.41;101062.06;5110054;28;20054;-60
2022/05/06 11:20:27;;;;;;;39.40;10.13;;;;;;;20.34;26.09;101061.63;5109846;28;20044;-60
2022/05/06 11:23:04;;;;;;;38.85;9.82;;;;;;;20.21;26.63;101060.63;5115154;28;20038;-60
2022/05/06 11:25:48;;;;;;;39.58;9.18;;;;;;;20.25;26.61;101055.28;5109989;28;20036;-60
2022/05/06 11:28:20;;;;;;;41.83;10.75;;;;;;;20.37;25.78;101059.03;5100668;28;20024;-60
2022/05/06 11:30:50;;;;;;;43.72;9.50;;;;;;;20.08;26.22;101051.34;5114244;28;20055;-60
2022/05/06 11:33:24;;;;;;;42.50;11.50;;;;;;;20.00;26.44;101054.09;5111880;28;20042;-60
2022/05/06 11:36:01;;;;;;;52.70;12.50;;;;;;;20.00;26.41;101046.63;5132320;27;20042;-60
2022/05/06 11:38:37;;;;;;;45.70;14.25;;;;;;;20.01;25.98;101051.00;5109687;28;20107;-60
2022/05/06 11:41:08;;;;;;;62.00;16.40;;;;;;;20.16;25.87;101056.09;5114904;28;20500;-59
2022/05/06 11:43:35;;;;;;;81.53;18.45;;;;;;;20.27;25.81;101061.28;5109466;28;20044;-59
2022/05/06 11:48:48;;;;;;;73.35;36.25;;;;;;;20.10;26.08;101054.59;5107814;28;20028;-60
2022/05/06 11:51:27;;;;;;;89.93;37.58;;;;;;;19.94;25.76;101050.66;5109296;28;20024;-60
2022/05/06 11:53:55;;;;;;;90.57;42.72;;;;;;;20.29;25.66;101054.34;5112192;28;20462;-59
2022/05/06 11:56:23;;;;;;;78.10;33.50;;;;;;;20.34;26.37;101053.34;5112322;28;20526;-59
2022/05/06 11:58:52;;;;;;;97.75;47.95;;;;;;;19.99;26.89;101052.47;5109110;28;20178;-59
2022/05/06 12:01:30;;;;;;;98.90;53.58;;;;;;;19.95;26.57;101054.25;5109897;28;20028;-60
2022/05/06 12:04:05;;;;;;;61.30;30.10;;;;;;;19.87;27.45;101045.59;5114668;28;20054;-59
2022/05/06 12:06:32;;;;;;;66.20;19.35;;;;;;;19.66;27.90;101054.75;5126209;27;20106;-59
2022/05/06 12:09:09;;;;;;;40.20;12.90;;;;;;;19.47;28.02;101061.28;5102872;28;20019;-60
2022/05/06 12:11:36;;;;;;;47.75;12.30;;;;;;;19.60;27.92;101052.16;5113709;28;20046;-60
2022/05/06 12:14:27;;;;;;;45.83;13.07;;;;;;;19.79;27.40;101057.44;5114643;28;20385;-59
2022/05/06 12:17:01;;;;;;;38.33;12.38;;;;;;;19.55;28.58;101051.47;5108684;28;20028;-60
2022/05/06 12:19:41;;;;;;;49.08;19.33;;;;;;;19.48;28.65;101054.66;5114360;28;20046;-59
2022/05/06 12:22:13;;;;;;;35.40;16.02;;;;;;;19.40;28.67;101066.44;5094378;28;20047;-60